createdAt,value
2018-03-21T00:01:48.459Z,60.27
2018-03-21T00:04:17.924Z,53.80
2018-03-21T00:06:47.020Z,57.53
2018-03-21T00:09:15.711Z,48.00
2018-03-21T00:11:44.353Z,31.00
2018-03-21T00:14:13.321Z,25.47
2018-03-21T00:16:43.712Z,41.00
2018-03-21T00:19:12.335Z,50.60
2018-03-21T00:21:41.802Z,27.10
2018-03-21T00:24:10.591Z,23.97
2018-03-21T00:26:39.236Z,18.93
2018-03-21T00:29:07.962Z,20.73
2018-03-21T00:31:36.648Z,16.33
2018-03-21T00:34:05.335Z,20.23
2018-03-21T00:36:34.120Z,17.23
2018-03-21T00:39:02.805Z,20.73
2018-03-21T00:41:31.447Z,16.00
2018-03-21T00:44:00.176Z,19.43
2018-03-21T00:46:28.863Z,16.90
2018-03-21T00:48:57.440Z,18.50
2018-03-21T00:51:26.193Z,20.60
2018-03-21T00:53:54.920Z,25.27
2018-03-21T00:56:23.465Z,25.13
2018-03-21T00:58:52.193Z,26.53
2018-03-21T01:01:21.690Z,28.77
2018-03-21T01:03:50.336Z,31.20
2018-03-21T01:06:19.062Z,25.03
2018-03-21T01:08:47.747Z,25.43
2018-03-21T01:11:16.433Z,35.53
2018-03-21T01:13:45.228Z,22.67
2018-03-21T01:16:13.894Z,22.53
2018-03-21T01:18:42.538Z,21.67
2018-03-21T01:21:12.202Z,20.57
2018-03-21T01:23:40.885Z,22.13
2018-03-21T01:26:09.579Z,20.23
2018-03-21T01:28:38.313Z,22.33
2018-03-21T01:31:07.763Z,19.90
2018-03-21T01:33:36.400Z,21.40
2018-03-21T01:36:05.139Z,22.83
2018-03-21T01:38:33.882Z,21.77
2018-03-21T01:41:02.615Z,21.63
2018-03-21T01:43:31.542Z,23.43
2018-03-21T01:46:01.013Z,29.33
2018-03-21T01:48:29.708Z,20.90
2018-03-21T01:50:59.093Z,23.90
2018-03-21T01:53:27.778Z,20.40
2018-03-21T01:55:56.464Z,23.90
2018-03-21T01:58:25.567Z,31.57
2018-03-21T02:00:54.253Z,29.07
2018-03-21T02:03:22.829Z,26.97
2018-03-21T02:05:52.479Z,25.20
2018-03-21T02:08:22.154Z,31.43
2018-03-21T02:10:50.791Z,19.97
2018-03-21T02:13:20.286Z,21.57
2018-03-21T02:15:49.637Z,21.20
2018-03-21T02:18:18.225Z,20.07
2018-03-21T02:20:47.316Z,20.13
2018-03-21T02:23:15.957Z,17.90
2018-03-21T02:25:44.687Z,21.37
2018-03-21T02:28:13.482Z,18.83
2018-03-21T02:30:42.169Z,21.83
2018-03-21T02:33:10.802Z,29.07
2018-03-21T02:35:40.768Z,23.37
2018-03-21T02:38:09.411Z,21.77
2018-03-21T02:40:38.140Z,32.87
2018-03-21T02:43:07.134Z,32.63
2018-03-21T02:45:35.711Z,32.93
2018-03-21T02:48:04.434Z,38.20
2018-03-21T02:50:33.905Z,32.17
2018-03-21T02:53:02.596Z,31.07
2018-03-21T02:55:31.241Z,29.40
2018-03-21T02:58:00.010Z,26.57
2018-03-21T03:00:28.746Z,26.40
2018-03-21T03:02:57.434Z,30.63
2018-03-21T03:05:26.229Z,25.47
2018-03-21T03:07:54.905Z,24.13
2018-03-21T03:10:23.599Z,22.60
2018-03-21T03:12:52.385Z,19.93
2018-03-21T03:15:20.970Z,22.77
2018-03-21T03:17:49.599Z,20.57
2018-03-21T03:20:19.319Z,17.73
2018-03-21T03:22:48.048Z,18.07
2018-03-21T03:25:16.744Z,18.50
2018-03-21T03:27:45.825Z,16.43
2018-03-21T03:30:14.513Z,19.83
2018-03-21T03:32:43.160Z,19.37
2018-03-21T03:35:12.026Z,19.63
2018-03-21T03:37:41.491Z,15.10
2018-03-21T03:40:10.176Z,19.70
2018-03-21T03:42:38.775Z,14.80
2018-03-21T03:45:07.449Z,14.43
2018-03-21T03:47:36.136Z,14.67
2018-03-21T03:50:04.920Z,13.83
2018-03-21T03:52:33.605Z,17.57
2018-03-21T03:55:02.271Z,12.33
2018-03-21T03:57:31.035Z,12.63
2018-03-21T04:00:00.486Z,14.90
2018-03-21T04:02:29.173Z,15.70
2018-03-21T04:04:57.868Z,18.90
2018-03-21T04:07:26.643Z,19.83
2018-03-21T04:09:55.428Z,15.57
2018-03-21T04:12:24.123Z,14.07
2018-03-21T04:14:52.762Z,14.37
2018-03-21T04:17:21.495Z,17.83
2018-03-21T04:19:50.488Z,28.60
2018-03-21T04:22:19.273Z,21.33
2018-03-21T04:24:47.825Z,23.00
2018-03-21T04:27:16.705Z,23.57
2018-03-21T04:29:45.429Z,38.60
2018-03-21T04:32:14.065Z,38.40
2018-03-21T04:34:42.801Z,45.60
2018-03-21T04:37:11.485Z,36.80
2018-03-21T04:39:40.119Z,30.80
2018-03-21T04:42:09.586Z,31.00
2018-03-21T04:44:38.304Z,21.00
2018-03-21T04:47:08.077Z,23.00
2018-03-21T04:49:36.760Z,15.90
2018-03-21T04:52:05.408Z,16.70
2018-03-21T04:54:34.130Z,15.63
2018-03-21T04:57:03.069Z,13.83
2018-03-21T04:59:32.538Z,30.63
2018-03-21T05:02:01.212Z,24.37
2018-03-21T05:04:30.102Z,33.07
2018-03-21T05:06:58.788Z,35.73
2018-03-21T05:09:27.474Z,30.17
2018-03-21T05:11:56.466Z,12.43
2018-03-21T05:14:25.095Z,10.20
2018-03-21T05:16:54.562Z,18.63
2018-03-21T05:19:23.555Z,13.67
2018-03-21T05:21:53.164Z,14.23
2018-03-21T05:24:21.918Z,13.57
2018-03-21T05:26:51.407Z,32.43
2018-03-21T05:29:20.856Z,11.47
2018-03-21T05:31:49.432Z,16.80
2018-03-21T05:34:18.266Z,12.90
2018-03-21T05:36:47.729Z,13.10
2018-03-21T05:39:16.370Z,16.57
2018-03-21T05:41:45.872Z,14.37
2018-03-21T05:44:14.606Z,10.03
2018-03-21T05:46:43.252Z,11.23
2018-03-21T05:49:13.169Z,13.00
2018-03-21T05:51:41.892Z,19.70
2018-03-21T05:54:10.576Z,14.67
2018-03-21T05:56:39.309Z,12.17
2018-03-21T05:59:07.886Z,12.10
2018-03-21T06:01:36.433Z,10.07
2018-03-21T06:04:05.354Z,15.93
2018-03-21T06:06:33.903Z,9.47
2018-03-21T06:09:02.476Z,8.77
2018-03-21T06:11:31.076Z,10.13
2018-03-21T06:13:59.631Z,12.17
2018-03-21T06:16:28.953Z,18.00
2018-03-21T06:18:57.654Z,17.73
2018-03-21T06:21:26.375Z,36.00
2018-03-21T06:23:54.934Z,18.23
2018-03-21T06:26:23.538Z,12.60
2018-03-21T06:28:52.084Z,18.87
2018-03-21T06:31:20.629Z,55.50
2018-03-21T06:33:50.100Z,19.43
2018-03-21T06:36:18.664Z,31.87
2018-03-21T06:38:47.241Z,18.33
2018-03-21T06:41:15.840Z,22.50
2018-03-21T06:43:44.398Z,30.27
2018-03-21T06:46:12.953Z,15.83
2018-03-21T06:48:41.985Z,17.77
2018-03-21T06:51:10.671Z,13.90
2018-03-21T06:53:39.357Z,11.40
2018-03-21T06:56:08.141Z,17.33
2018-03-21T06:58:36.827Z,12.17
2018-03-21T07:01:05.377Z,9.50
2018-03-21T07:03:33.988Z,13.00
2018-03-21T07:06:02.542Z,14.67
2018-03-21T07:08:31.215Z,16.83
2018-03-21T07:11:00.182Z,15.50
2018-03-21T07:13:51.120Z,15.87
2018-03-21T07:16:38.485Z,14.60
2018-03-21T07:19:07.133Z,16.53
2018-03-21T07:21:35.857Z,30.23
2018-03-21T07:24:04.507Z,22.90
2018-03-21T07:26:33.186Z,25.07
2018-03-21T07:29:01.829Z,18.70
2018-03-21T07:31:30.871Z,22.47
2018-03-21T07:33:59.425Z,20.00
2018-03-21T07:36:28.894Z,24.13
2018-03-21T07:38:57.888Z,22.57
2018-03-21T07:41:26.577Z,19.33
2018-03-21T07:43:55.259Z,19.73
2018-03-21T07:46:25.074Z,19.27
2018-03-21T07:48:53.653Z,21.67
2018-03-21T07:51:22.348Z,22.53
2018-03-21T07:53:51.033Z,26.27
2018-03-21T07:56:19.718Z,19.30
2018-03-21T07:58:48.711Z,19.17
2018-03-21T08:01:17.485Z,18.43
2018-03-21T08:03:46.130Z,19.37
2018-03-21T08:06:15.454Z,16.87
2018-03-21T08:08:44.372Z,20.03
2018-03-21T08:11:12.924Z,19.07
2018-03-21T08:13:41.473Z,18.50
2018-03-21T08:16:10.853Z,19.13
2018-03-21T08:18:39.404Z,23.67
2018-03-21T08:21:07.961Z,25.90
2018-03-21T08:23:36.561Z,24.23
2018-03-21T08:26:05.141Z,16.70
2018-03-21T08:28:33.693Z,21.83
2018-03-21T08:31:03.062Z,18.83
2018-03-21T08:33:31.618Z,21.07
2018-03-21T08:36:00.202Z,19.33
2018-03-21T08:38:28.950Z,28.60
2018-03-21T08:40:58.269Z,27.43
2018-03-21T08:43:26.870Z,27.57
2018-03-21T08:45:55.665Z,29.87
2018-03-21T08:48:24.222Z,32.33
2018-03-21T08:50:52.769Z,37.40
2018-03-21T08:53:21.706Z,32.80
2018-03-21T08:55:50.264Z,36.57
2018-03-21T08:58:19.585Z,31.23
2018-03-21T09:00:48.581Z,32.03
2018-03-21T09:03:17.202Z,32.30
2018-03-21T09:05:45.758Z,35.13
2018-03-21T09:08:15.186Z,35.13
2018-03-21T09:10:43.736Z,31.97
2018-03-21T09:13:12.283Z,26.77
2018-03-21T09:15:41.113Z,30.63
2018-03-21T09:18:09.669Z,36.80
2018-03-21T09:20:38.222Z,30.10
2018-03-21T09:23:07.588Z,33.67
2018-03-21T09:25:36.141Z,68.03
2018-03-21T09:28:04.693Z,30.17
2018-03-21T09:30:34.251Z,42.47
2018-03-21T09:33:02.806Z,38.13
2018-03-21T09:35:31.356Z,34.90
2018-03-21T09:38:00.726Z,41.53
2018-03-21T09:40:29.280Z,32.23
2018-03-21T09:42:57.842Z,35.00
2018-03-21T09:45:26.438Z,38.50
2018-03-21T09:47:54.998Z,37.50
2018-03-21T09:50:24.317Z,42.50
2018-03-21T09:52:53.133Z,29.33
2018-03-21T09:55:21.683Z,36.63
2018-03-21T09:57:50.242Z,38.53
2018-03-21T10:00:19.807Z,33.97
2018-03-21T10:02:48.362Z,28.67
2018-03-21T10:05:16.917Z,28.37
2018-03-21T10:07:46.586Z,28.83
2018-03-21T10:10:15.140Z,27.53
2018-03-21T10:12:43.697Z,43.37
2018-03-21T10:15:13.101Z,26.20
2018-03-21T10:17:42.422Z,22.63
2018-03-21T10:20:10.972Z,24.30
2018-03-21T10:22:39.573Z,22.37
2018-03-21T10:25:08.129Z,23.60
2018-03-21T10:27:36.684Z,22.03
2018-03-21T10:30:05.476Z,23.03
2018-03-21T10:32:34.065Z,19.40
2018-03-21T10:35:02.622Z,28.30
2018-03-21T10:37:31.233Z,32.00
2018-03-21T10:39:59.790Z,28.80
2018-03-21T10:42:29.109Z,31.67
2018-03-21T10:44:57.755Z,28.30
2018-03-21T10:47:27.133Z,32.47
2018-03-21T10:49:55.824Z,29.73
2018-03-21T10:52:24.766Z,26.03
2018-03-21T10:54:54.092Z,28.83
2018-03-21T10:57:22.653Z,32.33
2018-03-21T10:59:51.258Z,26.73
2018-03-21T11:02:19.891Z,27.77
2018-03-21T11:04:48.444Z,26.67
2018-03-21T11:07:19.692Z,28.13
2018-03-21T11:09:48.249Z,35.13
2018-03-21T11:12:16.814Z,33.93
2018-03-21T11:14:45.650Z,38.40
2018-03-21T11:17:14.197Z,33.63
2018-03-21T11:19:42.757Z,29.10
2018-03-21T11:22:12.120Z,43.53
2018-03-21T11:24:40.673Z,46.57
2018-03-21T11:27:09.222Z,31.87
2018-03-21T11:29:38.988Z,31.30
2018-03-21T11:32:07.537Z,41.73
2018-03-21T11:34:36.088Z,45.20
2018-03-21T11:37:04.689Z,45.97
2018-03-21T11:39:33.243Z,45.97
2018-03-21T11:42:01.830Z,49.27
2018-03-21T11:44:30.439Z,51.47
2018-03-21T11:46:59.178Z,44.73
2018-03-21T11:49:27.762Z,47.80
2018-03-21T11:51:56.358Z,47.93
2018-03-21T11:54:25.134Z,61.80
2018-03-21T11:56:53.715Z,54.97
2018-03-21T11:59:22.400Z,59.30
2018-03-21T12:01:51.093Z,60.67
2018-03-21T12:04:19.710Z,59.70
2018-03-21T12:06:49.484Z,60.43
2018-03-21T12:09:18.124Z,68.67
2018-03-21T12:11:46.856Z,60.77
2018-03-21T12:14:15.851Z,51.50
2018-03-21T12:16:44.633Z,59.43
2018-03-21T12:19:13.226Z,72.30
2018-03-21T12:21:42.138Z,86.40
2018-03-21T12:24:10.899Z,78.10
2018-03-21T12:26:39.585Z,45.53
2018-03-21T12:29:08.517Z,57.03
2018-03-21T12:31:37.933Z,44.37
2018-03-21T12:34:06.662Z,46.03
2018-03-21T12:36:35.619Z,43.17
2018-03-21T12:39:04.450Z,49.73
2018-03-21T12:41:33.137Z,48.13
2018-03-21T12:44:02.224Z,46.20
2018-03-21T12:46:30.914Z,44.13
2018-03-21T12:48:59.476Z,41.40
2018-03-21T12:51:28.289Z,47.27
2018-03-21T12:53:57.021Z,43.47
2018-03-21T12:56:25.784Z,39.83
2018-03-21T12:58:54.804Z,39.87
2018-03-21T13:01:24.258Z,42.03
2018-03-21T13:03:52.944Z,42.53
2018-03-21T13:06:21.909Z,41.70
2018-03-21T13:08:50.649Z,38.50
2018-03-21T13:11:20.233Z,39.07
2018-03-21T13:13:49.108Z,31.90
2018-03-21T13:16:17.719Z,34.67
2018-03-21T13:18:47.213Z,42.23
2018-03-21T13:21:16.202Z,43.37
2018-03-21T13:23:44.888Z,35.90
2018-03-21T13:26:13.464Z,35.20
2018-03-21T13:28:42.467Z,35.70
2018-03-21T13:31:11.111Z,37.50
2018-03-21T13:33:39.839Z,47.47
2018-03-21T13:36:08.576Z,30.93
2018-03-21T13:38:37.310Z,38.83
2018-03-21T13:41:05.996Z,48.63
2018-03-21T13:43:34.881Z,35.83
2018-03-21T13:46:03.570Z,34.93
2018-03-21T13:48:32.317Z,38.77
2018-03-21T13:51:01.051Z,40.80
2018-03-21T13:53:29.753Z,32.17
2018-03-21T13:55:59.240Z,34.97
2018-03-21T13:58:28.024Z,34.03
2018-03-21T14:00:56.710Z,33.50
2018-03-21T14:03:25.349Z,35.37
2018-03-21T14:05:54.239Z,38.00
2018-03-21T14:08:23.690Z,33.50
2018-03-21T14:10:52.277Z,34.93
2018-03-21T14:13:21.066Z,31.67
2018-03-21T14:15:49.624Z,34.33
2018-03-21T14:18:18.382Z,32.47
2018-03-21T14:20:47.026Z,88.37
2018-03-21T14:23:15.751Z,29.20
2018-03-21T14:25:45.203Z,26.90
2018-03-21T14:28:14.158Z,38.33
2018-03-21T14:30:42.882Z,32.30
2018-03-21T14:33:11.515Z,37.30
2018-03-21T14:35:40.889Z,33.90
2018-03-21T14:38:09.648Z,39.80
2018-03-21T14:40:38.241Z,39.73
2018-03-21T14:43:06.926Z,37.20
2018-03-21T14:45:36.433Z,37.77
2018-03-21T14:48:05.218Z,34.80
2018-03-21T14:50:33.914Z,32.10
2018-03-21T14:53:02.590Z,30.37
2018-03-21T14:55:31.141Z,32.73
2018-03-21T14:57:59.870Z,33.70
2018-03-21T15:00:28.432Z,37.97
2018-03-21T15:02:57.079Z,39.73
2018-03-21T15:05:26.550Z,35.10
2018-03-21T15:07:55.220Z,43.80
2018-03-21T15:10:23.809Z,31.73
2018-03-21T15:12:52.750Z,35.47
2018-03-21T15:15:22.200Z,47.37
2018-03-21T15:17:50.887Z,45.90
2018-03-21T15:20:19.728Z,38.83
2018-03-21T15:22:48.465Z,42.50
2018-03-21T15:25:17.151Z,55.80
2018-03-21T15:27:46.341Z,48.67
2018-03-21T15:30:15.140Z,41.23
2018-03-21T15:32:43.807Z,44.43
2018-03-21T15:35:12.603Z,42.23
2018-03-21T15:37:41.152Z,42.23
2018-03-21T15:40:09.874Z,40.43
2018-03-21T15:42:38.566Z,41.33
2018-03-21T15:45:07.346Z,42.63
2018-03-21T15:47:36.032Z,46.07
2018-03-21T15:50:04.773Z,50.67
2018-03-21T15:52:33.502Z,47.03
2018-03-21T15:55:02.188Z,50.27
2018-03-21T15:57:30.972Z,37.37
2018-03-21T15:59:59.620Z,45.33
2018-03-21T16:02:28.344Z,44.60
2018-03-21T16:04:57.305Z,42.97
2018-03-21T16:07:25.925Z,60.17
2018-03-21T16:09:54.473Z,87.70
2018-03-21T16:12:23.089Z,371.47
2018-03-21T16:14:51.776Z,232.43
2018-03-21T16:17:20.420Z,676.87
2018-03-21T16:19:49.037Z,254.87
2018-03-21T16:22:17.588Z,60.10
2018-03-21T16:24:46.319Z,54.30
2018-03-21T16:27:15.993Z,133.70
2018-03-21T16:29:44.670Z,652.17
2018-03-21T16:32:13.304Z,253.43
2018-03-21T16:34:42.772Z,405.27
2018-03-21T16:39:56.798Z,100.93
2018-03-21T16:42:25.504Z,89.43
2018-03-21T16:44:54.091Z,89.73
2018-03-21T16:47:23.247Z,100.67
2018-03-21T16:49:51.978Z,143.40
2018-03-21T16:52:20.660Z,138.80
2018-03-21T16:54:49.451Z,194.43
2018-03-21T16:57:18.017Z,241.83
2018-03-21T16:59:46.728Z,201.00
2018-03-21T17:02:15.882Z,190.73
2018-03-21T17:04:44.551Z,194.43
2018-03-21T17:07:13.283Z,212.70
2018-03-21T17:09:42.179Z,594.77
2018-03-21T17:12:10.744Z,456.23
2018-03-21T17:14:39.342Z,199.30
2018-03-21T17:17:08.190Z,148.23
2018-03-21T17:19:36.921Z,181.07
2018-03-21T17:22:05.627Z,192.07
2018-03-21T17:24:34.284Z,350.03
2018-03-21T17:27:02.982Z,418.03
2018-03-21T17:29:31.669Z,285.07
2018-03-21T17:32:00.353Z,277.13
2018-03-21T17:34:29.036Z,172.07
2018-03-21T17:36:57.617Z,155.57
2018-03-21T17:39:26.354Z,183.13
2018-03-21T17:41:55.710Z,173.47
2018-03-21T17:44:24.413Z,177.07
2018-03-21T17:46:53.490Z,173.63
2018-03-21T17:49:22.126Z,150.60
2018-03-21T17:51:50.856Z,167.87
2018-03-21T17:54:19.854Z,179.20
2018-03-21T17:56:48.437Z,157.90
2018-03-21T17:59:17.123Z,149.17
2018-03-21T18:01:45.812Z,196.90
2018-03-21T18:04:14.518Z,227.83
2018-03-21T18:06:44.007Z,183.90
2018-03-21T18:09:12.996Z,153.90
2018-03-21T18:11:41.572Z,158.10
2018-03-21T18:14:10.258Z,141.13
2018-03-21T18:16:39.423Z,139.10
2018-03-21T18:19:08.115Z,188.83
2018-03-21T18:21:36.780Z,144.03
2018-03-21T18:24:05.882Z,166.87
2018-03-21T18:26:34.664Z,168.13
2018-03-21T18:29:03.349Z,160.17
2018-03-21T18:31:32.451Z,115.37
2018-03-21T18:34:01.022Z,109.63
2018-03-21T18:36:29.614Z,118.83
2018-03-21T18:38:58.602Z,148.33
2018-03-21T18:41:27.158Z,135.70
2018-03-21T18:43:55.723Z,132.73
2018-03-21T18:46:24.459Z,126.03
2018-03-21T18:48:53.019Z,144.00
2018-03-21T18:51:21.574Z,148.63
2018-03-21T18:53:50.941Z,154.13
2018-03-21T18:56:19.616Z,189.83
2018-03-21T18:58:48.302Z,176.77
2018-03-21T19:01:17.087Z,215.87
2018-03-21T19:03:45.677Z,187.63
2018-03-21T19:06:14.360Z,184.57
2018-03-21T19:08:43.454Z,163.97
2018-03-21T19:11:12.039Z,160.70
2018-03-21T19:13:40.655Z,488.93
2018-03-21T19:16:10.380Z,400.17
2018-03-21T19:18:39.801Z,398.03
2018-03-21T19:21:08.516Z,531.43
2018-03-21T19:23:37.417Z,427.57
2018-03-21T19:26:05.997Z,238.00
2018-03-21T19:28:34.557Z,319.37
2018-03-21T19:31:03.175Z,644.13
2018-03-21T19:33:31.741Z,640.47
2018-03-21T19:36:00.302Z,664.50
2018-03-21T19:38:29.370Z,394.43
2018-03-21T19:40:58.787Z,315.03
2018-03-21T19:43:27.511Z,244.20
2018-03-21T19:45:56.454Z,284.60
2018-03-21T19:48:25.288Z,316.63
2018-03-21T19:50:54.004Z,597.40
2018-03-21T19:53:22.925Z,312.67
2018-03-21T19:55:51.619Z,164.87
2018-03-21T19:58:20.338Z,118.00
2018-03-21T20:00:49.134Z,109.93
2018-03-21T20:03:17.820Z,142.23
2018-03-21T20:05:46.483Z,157.73
2018-03-21T20:08:16.006Z,501.10
2018-03-21T20:10:44.652Z,245.87
2018-03-21T20:13:13.376Z,129.83
2018-03-21T20:15:42.170Z,160.67
2018-03-21T20:18:11.164Z,91.20
2018-03-21T20:20:39.849Z,189.60
2018-03-21T20:23:08.817Z,159.87
2018-03-21T20:25:37.528Z,200.67
2018-03-21T20:28:06.313Z,465.80
2018-03-21T20:30:35.047Z,259.80
2018-03-21T20:33:04.401Z,214.60
2018-03-21T20:35:33.086Z,162.40
2018-03-21T20:38:01.775Z,151.47
2018-03-21T20:40:30.519Z,354.30
2018-03-21T20:42:59.250Z,239.17
2018-03-21T20:45:27.930Z,166.73
2018-03-21T20:47:56.625Z,159.50
2018-03-21T20:50:25.307Z,175.87
2018-03-21T20:52:54.159Z,169.93
2018-03-21T20:55:22.880Z,180.83
2018-03-21T20:57:51.521Z,272.60
2018-03-21T21:00:20.349Z,106.20
2018-03-21T21:02:49.044Z,209.40
2018-03-21T21:05:18.223Z,132.43
2018-03-21T21:07:46.929Z,119.30
2018-03-21T21:10:15.716Z,128.37
2018-03-21T21:12:44.410Z,82.37
2018-03-21T21:15:13.145Z,81.13
2018-03-21T21:17:41.811Z,74.70
2018-03-21T21:20:11.277Z,36.73
2018-03-21T21:22:40.267Z,43.00
2018-03-21T21:25:08.858Z,40.00
2018-03-21T21:27:37.531Z,43.17
2018-03-21T21:30:06.531Z,42.40
2018-03-21T21:32:35.094Z,32.70
2018-03-21T21:35:03.735Z,37.67
2018-03-21T21:37:33.456Z,29.03
2018-03-21T21:40:02.876Z,32.23
2018-03-21T21:42:31.594Z,37.23
2018-03-21T21:45:00.618Z,32.63
2018-03-21T21:47:30.101Z,31.10
2018-03-21T21:49:58.663Z,26.47
2018-03-21T21:52:27.676Z,28.33
2018-03-21T21:54:56.363Z,27.43
2018-03-21T21:57:25.146Z,25.57
2018-03-21T21:59:53.837Z,26.00
2018-03-21T22:02:22.620Z,27.43
2018-03-21T22:04:51.302Z,23.97
2018-03-21T22:07:20.295Z,29.17
2018-03-21T22:09:48.962Z,28.03
2018-03-21T22:12:23.358Z,30.67
2018-03-21T22:14:51.859Z,28.57
2018-03-21T22:17:20.351Z,27.63
2018-03-21T22:19:49.129Z,25.57
2018-03-21T22:22:17.635Z,26.87
2018-03-21T22:24:46.124Z,23.47
2018-03-21T22:27:14.841Z,26.13
2018-03-21T22:29:43.327Z,23.80
2018-03-21T22:32:12.587Z,30.57
2018-03-21T22:34:41.128Z,28.67
2018-03-21T22:37:10.383Z,31.13
2018-03-21T22:39:38.861Z,26.87
2018-03-21T22:42:07.405Z,27.47
2018-03-21T22:44:35.895Z,31.37
2018-03-21T22:47:04.499Z,30.13
2018-03-21T22:49:33.483Z,22.00
2018-03-21T22:52:01.981Z,22.70
2018-03-21T22:54:30.647Z,25.23
2018-03-21T22:56:59.799Z,21.13
2018-03-21T22:59:29.048Z,23.87
2018-03-21T23:01:57.685Z,23.23
2018-03-21T23:04:27.344Z,22.90
2018-03-21T23:06:56.030Z,25.07
2018-03-21T23:09:24.664Z,22.47
2018-03-21T23:11:54.130Z,21.30
2018-03-21T23:14:22.799Z,22.37
2018-03-21T23:16:51.485Z,22.87
2018-03-21T23:19:20.281Z,26.63
2018-03-21T23:21:48.926Z,23.47
2018-03-21T23:24:17.647Z,26.07
2018-03-21T23:26:48.110Z,25.17
2018-03-21T23:29:17.581Z,26.10
2018-03-21T23:31:46.267Z,25.83
2018-03-21T23:34:15.113Z,27.73
2018-03-21T23:36:43.846Z,27.40
2018-03-21T23:39:12.533Z,29.03
2018-03-21T23:41:41.270Z,25.20
2018-03-21T23:44:10.004Z,22.87
2018-03-21T23:46:39.556Z,25.40
2018-03-21T23:49:09.021Z,26.20
2018-03-21T23:51:37.695Z,26.13
2018-03-21T23:54:06.380Z,26.47
2018-03-21T23:56:35.176Z,29.87
2018-03-21T23:59:03.862Z,27.57
